createdAt,value
2022-08-10T00:01:54.330Z,101355.08
2022-08-10T00:04:24.419Z,101349.71
2022-08-10T00:06:53.901Z,101349.92
2022-08-10T00:09:24.242Z,101353.04
2022-08-10T00:11:52.298Z,101352.71
2022-08-10T00:14:20.374Z,101350.85
2022-08-10T00:16:48.551Z,101358.11
2022-08-10T00:19:18.171Z,101354.34
2022-08-10T00:21:48.387Z,101357.31
2022-08-10T00:24:16.655Z,101355.37
2022-08-10T00:27:52.660Z,101357.03
2022-08-10T00:29:33.558Z,101353.34
2022-08-10T00:32:02.159Z,101351.06
2022-08-10T00:34:33.263Z,101350.67
2022-08-10T00:37:02.209Z,101350.46
2022-08-10T00:39:34.464Z,101349.00
2022-08-10T00:42:08.461Z,101351.80
2022-08-10T00:44:42.038Z,101349.09
2022-08-10T00:47:22.550Z,101350.48
2022-08-10T00:49:59.716Z,101350.63
2022-08-10T00:52:34.653Z,101354.92
2022-08-10T00:55:05.437Z,101355.02
2022-08-10T00:57:35.740Z,101353.50
2022-08-10T01:00:06.561Z,101354.03
2022-08-10T01:02:34.983Z,101359.08
2022-08-10T01:05:10.199Z,101361.98
2022-08-10T01:08:04.852Z,101359.52
2022-08-10T01:10:59.049Z,101358.35
2022-08-10T01:13:42.791Z,101358.81
2022-08-10T01:16:16.595Z,101359.26
2022-08-10T01:19:02.777Z,101362.20
2022-08-10T01:22:01.062Z,101357.70
2022-08-10T01:24:47.360Z,101359.55
2022-08-10T01:27:39.085Z,101365.23
2022-08-10T01:30:14.449Z,101360.64
2022-08-10T01:32:48.646Z,101366.69
2022-08-10T01:35:50.186Z,101365.18
2022-08-10T01:38:34.959Z,101365.13
2022-08-10T01:41:12.951Z,101361.55
2022-08-10T01:43:58.943Z,101364.65
2022-08-10T01:46:35.216Z,101364.13
2022-08-10T01:49:08.907Z,101366.54
2022-08-10T01:51:49.272Z,101367.23
2022-08-10T01:54:21.535Z,101363.95
2022-08-10T01:56:54.221Z,101362.86
2022-08-10T01:59:40.459Z,101364.94
2022-08-10T02:02:12.007Z,101368.42
2022-08-10T02:04:43.718Z,101370.31
2022-08-10T02:07:16.499Z,101366.14
2022-08-10T02:09:53.889Z,101367.61
2022-08-10T02:12:30.388Z,101368.05
2022-08-10T02:15:04.361Z,101371.07
2022-08-10T02:17:59.003Z,101371.58
2022-08-10T02:20:31.660Z,101368.42
2022-08-10T02:23:05.555Z,101366.44
2022-08-10T02:25:41.774Z,101365.81
2022-08-10T02:28:30.523Z,101368.95
2022-08-10T02:31:11.769Z,101371.11
2022-08-10T02:33:56.702Z,101367.43
2022-08-10T02:36:31.543Z,101366.27
2022-08-10T02:39:03.891Z,101367.89
2022-08-10T02:45:14.713Z,101371.48
2022-08-10T02:45:22.446Z,101370.90
2022-08-10T02:47:51.131Z,101374.24
2022-08-10T02:50:27.837Z,101376.23
2022-08-10T02:53:56.479Z,101374.41
2022-08-10T02:56:32.602Z,101379.55
2022-08-10T02:59:40.363Z,101375.86
2022-08-10T03:02:14.875Z,101377.25
2022-08-10T03:04:58.093Z,101380.39
2022-08-10T03:07:43.153Z,101378.91
2022-08-10T03:10:20.706Z,101378.73
2022-08-10T03:12:53.234Z,101377.86
2022-08-10T03:15:27.906Z,101376.72
2022-08-10T03:17:59.216Z,101380.77
2022-08-10T03:20:38.274Z,101384.13
2022-08-10T03:23:18.750Z,101383.98
2022-08-10T03:25:53.111Z,101384.11
2022-08-10T03:28:27.482Z,101384.08
2022-08-10T03:30:59.863Z,101385.45
2022-08-10T03:33:32.948Z,101381.09
2022-08-10T03:36:41.907Z,101380.41
2022-08-10T03:38:53.617Z,101382.90
2022-08-10T03:41:35.611Z,101387.45
2022-08-10T03:44:07.084Z,101391.08
2022-08-10T03:46:38.757Z,101390.09
2022-08-10T03:49:07.857Z,101392.98
2022-08-10T03:51:39.487Z,101396.16
2022-08-10T03:54:08.745Z,101397.20
2022-08-10T03:56:39.078Z,101404.84
2022-08-10T03:59:14.399Z,101405.68
2022-08-10T04:02:52.879Z,101409.48
2022-08-10T04:04:33.875Z,101407.84
2022-08-10T04:07:04.936Z,101407.34
2022-08-10T04:09:53.476Z,101408.13
2022-08-10T04:12:24.969Z,101411.73
2022-08-10T04:14:53.878Z,101409.77
2022-08-10T04:18:03.692Z,101410.30
2022-08-10T04:20:26.288Z,101416.37
2022-08-10T04:23:28.048Z,101416.33
2022-08-10T04:25:57.027Z,101416.84
2022-08-10T04:28:26.750Z,101415.10
2022-08-10T04:30:57.586Z,101416.21
2022-08-10T04:33:27.553Z,101420.90
2022-08-10T04:35:57.321Z,101420.86
2022-08-10T04:38:26.647Z,101424.48
2022-08-10T04:40:55.090Z,101421.48
2022-08-10T04:43:23.436Z,101420.48
2022-08-10T04:45:52.018Z,101422.35
2022-08-10T04:48:43.325Z,101424.72
2022-08-10T04:51:17.763Z,101424.57
2022-08-10T04:54:03.793Z,101421.89
2022-08-10T04:56:37.482Z,101426.73
2022-08-10T04:59:07.896Z,101431.64
2022-08-10T05:02:28.811Z,101434.42
2022-08-10T05:04:34.386Z,101440.84
2022-08-10T05:07:16.563Z,101438.91
2022-08-10T05:10:03.559Z,101441.98
2022-08-10T05:12:38.976Z,101439.27
2022-08-10T05:15:12.690Z,101441.98
2022-08-10T05:18:08.162Z,101442.89
2022-08-10T05:20:37.950Z,101443.13
2022-08-10T05:23:06.043Z,101448.00
2022-08-10T05:25:38.298Z,101446.41
2022-08-10T05:28:07.091Z,101443.51
2022-08-10T05:30:35.259Z,101448.95
2022-08-10T05:33:08.028Z,101450.07
2022-08-10T05:35:56.312Z,101446.84
2022-08-10T05:38:28.473Z,101448.59
2022-08-10T05:41:02.800Z,101452.70
2022-08-10T05:43:31.181Z,101455.88
2022-08-10T05:46:18.349Z,101461.95
2022-08-10T05:48:56.791Z,101461.33
2022-08-10T05:51:30.374Z,101468.49
2022-08-10T05:54:05.689Z,101465.45
2022-08-10T05:56:57.033Z,101466.94
2022-08-10T06:00:30.814Z,101471.32
2022-08-10T06:02:33.641Z,101473.11
2022-08-10T06:05:11.326Z,101475.52
2022-08-10T06:07:48.818Z,101473.95
2022-08-10T06:10:31.629Z,101474.66
2022-08-10T06:13:26.703Z,101476.59
2022-08-10T06:15:57.465Z,101469.84
2022-08-10T06:18:26.250Z,101470.34
2022-08-10T06:21:01.010Z,101471.39
2022-08-10T06:23:30.899Z,101472.84
2022-08-10T06:26:10.762Z,101469.67
2022-08-10T06:29:03.760Z,101468.97
2022-08-10T06:31:53.879Z,101469.45
2022-08-10T06:34:26.318Z,101472.67
2022-08-10T06:36:59.744Z,101474.00
2022-08-10T06:39:36.568Z,101474.63
2022-08-10T06:42:20.155Z,101467.50
2022-08-10T06:45:06.792Z,101474.41
2022-08-10T06:47:45.230Z,101475.06
2022-08-10T06:50:58.089Z,101474.99
2022-08-10T06:53:52.279Z,101475.71
2022-08-10T06:56:37.514Z,101473.78
2022-08-10T06:59:21.818Z,101466.48
2022-08-10T07:02:09.948Z,101470.52
2022-08-10T07:04:44.862Z,101466.23
2022-08-10T07:07:19.805Z,101465.11
2022-08-10T07:09:51.405Z,101470.77
2022-08-10T07:12:22.506Z,101473.39
2022-08-10T07:14:52.218Z,101473.91
2022-08-10T07:17:24.487Z,101480.58
2022-08-10T07:19:58.186Z,101475.67
2022-08-10T07:23:22.682Z,101476.36
2022-08-10T07:25:25.349Z,101472.06
2022-08-10T07:27:58.637Z,101473.33
2022-08-10T07:30:37.470Z,101471.23
2022-08-10T07:33:07.741Z,101466.10
2022-08-10T07:35:42.713Z,101464.52
2022-08-10T07:38:18.408Z,101467.17
2022-08-10T07:40:49.167Z,101472.35
2022-08-10T07:43:20.684Z,101472.14
2022-08-10T07:45:50.076Z,101484.64
2022-08-10T07:48:34.730Z,101487.52
2022-08-10T07:51:04.444Z,101488.95
2022-08-10T07:53:38.842Z,101494.30
2022-08-10T07:56:21.226Z,101494.35
2022-08-10T07:59:09.731Z,101490.55
2022-08-10T08:01:50.873Z,101493.70
2022-08-10T08:04:24.266Z,101497.34
2022-08-10T08:06:54.299Z,101499.25
2022-08-10T08:09:25.092Z,101504.92
2022-08-10T08:11:55.246Z,101505.27
2022-08-10T08:14:24.553Z,101502.29
2022-08-10T08:16:55.490Z,101500.55
2022-08-10T08:19:35.430Z,101498.59
2022-08-10T08:24:06.310Z,101498.09
2022-08-10T08:24:57.552Z,101494.06
2022-08-10T08:27:27.545Z,101492.01
2022-08-10T08:29:56.322Z,101487.79
2022-08-10T08:32:28.146Z,101483.33
2022-08-10T08:35:02.394Z,101480.64
2022-08-10T08:38:30.242Z,101484.80
2022-08-10T08:40:33.990Z,101479.61
2022-08-10T08:43:31.503Z,101481.47
2022-08-10T08:46:18.634Z,101482.10
2022-08-10T08:49:03.542Z,101481.90
2022-08-10T08:52:07.801Z,101482.27
2022-08-10T08:55:52.342Z,101482.75
2022-08-10T13:52:12.855Z,101289.23
2022-08-10T13:54:43.085Z,101284.59
2022-08-10T13:57:12.796Z,101287.02
2022-08-10T14:00:36.476Z,101293.56
2022-08-10T14:02:58.835Z,101292.84
2022-08-10T14:05:38.130Z,101290.98
2022-08-10T14:08:12.793Z,101295.67
2022-08-10T14:11:10.103Z,101292.29
2022-08-10T14:13:36.375Z,101288.06
2022-08-10T14:16:07.568Z,101288.13
2022-08-10T14:18:37.556Z,101283.24
2022-08-10T14:21:06.667Z,101277.13
2022-08-10T14:23:52.625Z,101277.14
2022-08-10T14:26:26.963Z,101278.08
2022-08-10T14:29:02.879Z,101276.61
2022-08-10T14:31:33.994Z,101274.86
2022-08-10T14:34:05.732Z,101271.30
2022-08-10T14:37:05.715Z,101265.33
2022-08-10T14:39:45.250Z,101263.34
2022-08-10T14:42:27.777Z,101267.25
2022-08-10T14:45:02.558Z,101266.88
2022-08-10T14:47:56.031Z,101268.80
2022-08-10T14:50:32.325Z,101270.56
2022-08-10T14:53:26.547Z,101266.13
2022-08-10T14:56:02.148Z,101262.98
2022-08-10T14:59:05.666Z,101267.09
2022-08-10T15:02:38.178Z,101274.71
2022-08-10T15:04:26.690Z,101280.62
2022-08-10T15:07:12.215Z,101274.52
2022-08-10T15:10:00.469Z,101278.86
2022-08-10T15:12:36.227Z,101273.70
2022-08-10T15:15:09.732Z,101267.77
2022-08-10T15:17:43.380Z,101258.73
2022-08-10T15:20:21.215Z,101255.17
2022-08-10T15:23:01.384Z,101253.16
2022-08-10T15:25:30.714Z,101247.24
2022-08-10T15:28:10.617Z,101245.89
2022-08-10T15:30:51.715Z,101241.08
2022-08-10T15:34:02.395Z,101237.26
2022-08-10T15:37:02.347Z,101241.83
2022-08-10T15:40:26.079Z,101236.11
2022-08-10T15:42:55.461Z,101240.17
2022-08-10T15:45:27.100Z,101237.48
2022-08-10T15:48:03.361Z,101237.31
2022-08-10T15:50:44.064Z,101233.77
2022-08-10T15:53:28.398Z,101234.85
2022-08-10T15:56:06.919Z,101232.77
2022-08-10T15:58:41.468Z,101232.42
2022-08-10T16:02:15.006Z,101231.53
2022-08-10T16:04:11.655Z,101228.57
2022-08-10T16:06:56.124Z,101227.59
2022-08-10T16:10:22.016Z,101226.54
2022-08-10T16:13:00.144Z,101228.49
2022-08-10T16:15:31.983Z,101225.94
2022-08-10T16:18:29.388Z,101226.70
2022-08-10T16:21:03.250Z,101223.19
2022-08-10T16:23:38.048Z,101221.93
2022-08-10T16:26:14.931Z,101222.29
2022-08-10T16:29:02.934Z,101220.03
2022-08-10T16:31:35.271Z,101214.48
2022-08-10T16:34:08.064Z,101218.75
2022-08-10T16:36:47.820Z,101219.15
2022-08-10T16:40:00.127Z,101216.27
2022-08-10T16:42:49.480Z,101211.48
2022-08-10T16:45:41.675Z,101210.45
2022-08-10T16:48:11.392Z,101210.95
2022-08-10T16:50:45.723Z,101209.39
2022-08-10T16:53:17.463Z,101212.80
2022-08-10T16:56:07.253Z,101207.25
2022-08-10T16:58:39.360Z,101209.23
2022-08-10T17:01:37.164Z,101209.00
2022-08-10T17:04:10.206Z,101210.41
2022-08-10T17:06:43.342Z,101209.88
2022-08-10T17:09:24.149Z,101210.14
2022-08-10T17:11:55.733Z,101207.90
2022-08-10T17:14:29.069Z,101207.44
2022-08-10T17:17:03.005Z,101208.07
2022-08-10T17:19:37.845Z,101208.42
2022-08-10T17:22:21.405Z,101217.10
2022-08-10T17:24:55.525Z,101210.88
2022-08-10T17:28:04.318Z,101211.30
2022-08-10T17:30:34.343Z,101213.48
2022-08-10T17:33:19.803Z,101212.63
2022-08-10T17:35:50.741Z,101212.67
2022-08-10T17:38:26.435Z,101210.59
2022-08-10T17:40:56.856Z,101209.52
2022-08-10T17:43:58.427Z,101210.27
2022-08-10T17:46:17.571Z,101210.29
2022-08-10T17:48:45.615Z,101213.45
2022-08-10T17:51:16.364Z,101213.02
2022-08-10T17:53:50.832Z,101215.15
2022-08-10T17:56:23.242Z,101215.47
2022-08-10T17:58:58.215Z,101214.48
2022-08-10T18:01:41.501Z,101213.70
2022-08-10T18:04:20.454Z,101215.75
2022-08-10T18:06:58.466Z,101219.27
2022-08-10T18:09:50.217Z,101219.10
2022-08-10T18:12:53.333Z,101226.58
2022-08-10T18:15:27.965Z,101224.54
2022-08-10T18:18:01.175Z,101225.98
2022-08-10T18:20:37.840Z,101225.36
2022-08-10T18:23:09.200Z,101227.36
2022-08-10T18:25:40.585Z,101226.54
2022-08-10T18:28:15.281Z,101229.77
2022-08-10T18:30:50.803Z,101229.97
2022-08-10T18:33:27.122Z,101229.36
2022-08-10T18:36:00.793Z,101231.76
2022-08-10T18:38:30.894Z,101232.63
2022-08-10T18:41:15.859Z,101233.11
2022-08-10T18:44:04.678Z,101234.52
2022-08-10T18:46:52.760Z,101235.47
2022-08-10T18:49:27.697Z,101237.05
2022-08-10T18:51:59.405Z,101240.41
2022-08-10T18:54:44.176Z,101243.55
2022-08-10T18:57:51.395Z,101247.73
2022-08-10T19:00:22.298Z,101251.44
2022-08-10T19:03:22.052Z,101250.81
2022-08-10T19:06:38.761Z,101250.56
2022-08-10T19:09:45.879Z,101251.52
2022-08-10T19:12:30.062Z,101252.93
2022-08-10T19:15:28.581Z,101255.64
2022-08-10T19:18:42.120Z,101261.00
2022-08-10T19:21:43.116Z,101259.84
2022-08-10T19:24:37.097Z,101258.81
2022-08-10T19:27:15.637Z,101257.05
2022-08-10T19:30:08.309Z,101257.77
2022-08-10T19:33:20.505Z,101254.09
2022-08-10T19:36:35.992Z,101255.52
2022-08-10T19:39:31.625Z,101254.08
2022-08-10T19:42:35.316Z,101254.80
2022-08-10T19:46:00.887Z,101249.50
2022-08-10T19:48:20.100Z,101250.43
2022-08-10T19:51:18.881Z,101248.61
2022-08-10T19:53:51.356Z,101250.52
2022-08-10T19:56:39.204Z,101254.73
2022-08-10T19:59:16.270Z,101254.58
2022-08-10T20:02:04.784Z,101257.73
2022-08-10T20:04:46.621Z,101255.89
2022-08-10T20:07:24.642Z,101256.04
2022-08-10T20:10:09.253Z,101257.02
2022-08-10T20:12:54.577Z,101254.70
2022-08-10T20:15:42.151Z,101256.98
2022-08-10T20:18:26.423Z,101255.54
2022-08-10T20:21:25.532Z,101250.98
2022-08-10T20:24:01.519Z,101248.72
2022-08-10T20:26:41.357Z,101249.64
2022-08-10T20:29:59.027Z,101254.16
2022-08-10T20:32:23.555Z,101254.29
2022-08-10T20:34:57.546Z,101252.00
2022-08-10T20:38:02.807Z,101248.23
2022-08-10T20:40:38.433Z,101246.30
2022-08-10T20:43:15.516Z,101244.83
2022-08-10T20:46:09.518Z,101243.54
2022-08-10T20:49:04.665Z,101242.81
2022-08-10T20:52:14.009Z,101244.29
2022-08-10T20:54:52.457Z,101245.86
2022-08-10T20:57:55.479Z,101244.02
2022-08-10T21:00:42.641Z,101244.82
2022-08-10T21:03:22.213Z,101240.88
2022-08-10T21:06:09.501Z,101238.83
2022-08-10T21:08:56.348Z,101236.47
2022-08-10T21:11:30.026Z,101236.41
2022-08-10T21:14:33.613Z,101237.34
2022-08-10T21:17:03.370Z,101235.73
2022-08-10T21:19:53.638Z,101239.23
2022-08-10T21:22:46.119Z,101239.27
2022-08-10T21:25:29.359Z,101239.77
2022-08-10T21:28:50.147Z,101239.10
2022-08-10T21:31:22.043Z,101240.11
2022-08-10T21:34:09.942Z,101238.66
2022-08-10T21:37:12.410Z,101238.05
2022-08-10T21:40:32.365Z,101238.40
2022-08-10T21:43:59.390Z,101234.17
2022-08-10T21:47:11.420Z,101229.06
2022-08-10T21:50:27.461Z,101233.17
2022-08-10T21:53:43.896Z,101238.40
2022-08-10T21:57:02.038Z,101239.38
2022-08-10T22:00:03.216Z,101244.27
2022-08-10T22:02:53.505Z,101243.26
2022-08-10T22:05:49.884Z,101243.87
2022-08-10T22:09:01.193Z,101247.67
2022-08-10T22:11:52.249Z,101246.35
2022-08-10T22:15:05.708Z,101246.23
2022-08-10T22:21:45.472Z,101244.34
2022-08-10T22:25:04.448Z,101242.05
2022-08-10T22:27:59.336Z,101239.42
2022-08-10T22:31:22.972Z,101235.44
2022-08-10T22:31:25.967Z,101248.43
2022-08-10T22:34:22.775Z,101234.41
2022-08-10T22:37:48.847Z,101233.94
2022-08-10T22:40:39.465Z,101232.15
2022-08-10T22:43:36.326Z,101231.42
2022-08-10T22:46:34.270Z,101227.79
2022-08-10T22:49:02.736Z,101221.67
2022-08-10T22:51:54.439Z,101219.17
2022-08-10T22:54:57.503Z,101218.98
2022-08-10T22:57:44.679Z,101213.80
2022-08-10T23:00:14.625Z,101212.17
2022-08-10T23:02:55.595Z,101213.77
2022-08-10T23:05:34.753Z,101216.80
2022-08-10T23:08:19.632Z,101215.48
2022-08-10T23:11:05.675Z,101214.13
2022-08-10T23:13:38.082Z,101211.97
2022-08-10T23:16:32.644Z,101216.63
2022-08-10T23:19:10.189Z,101215.84
2022-08-10T23:22:05.987Z,101216.59
2022-08-10T23:24:37.295Z,101212.27
2022-08-10T23:27:12.942Z,101214.14
2022-08-10T23:30:10.706Z,101216.33
2022-08-10T23:32:43.883Z,101217.02
2022-08-10T23:36:05.681Z,101217.32
2022-08-10T23:38:12.546Z,101216.64
2022-08-10T23:40:46.617Z,101216.71
2022-08-10T23:43:28.784Z,101217.41
2022-08-10T23:46:08.226Z,101215.50
2022-08-10T23:48:38.367Z,101216.39
2022-08-10T23:51:16.431Z,101217.05
2022-08-10T23:53:48.202Z,101210.10
2022-08-10T23:56:20.743Z,101208.89
2022-08-10T23:58:55.925Z,101208.33
